KGAD/GAD METAR and TAF weather

Enter ICAO airport designator
Station Type Date Time Source
KGAD METAR 2019/06/27 09:56 UTC NOAA

KGAD 270956Z AUTO 00000KT 10SM CLR 21/21 A3018 RMK AO2 SLP217 T02110211


Station Type Date Time Source
KGAD Decoded METAR 2019/06/27 09:56 UTC NOAA

Gadsden, Gadsden Municipal Airport, AL, United States (KGAD) 33-58N 086-05W
Jun 27, 2019 - 05:56 AM EDT / 2019.06.27 0956 UTC
Wind: Calm:0
Visibility: 10 mile(s):0
Sky conditions: clear
Temperature: 70.0 F (21.1 C)
Dew Point: 70.0 F (21.1 C)
Relative Humidity: 100%
Pressure (altimeter): 30.18 in. Hg (1022 hPa)
ob: KGAD 270956Z AUTO 00000KT 10SM CLR 21/21 A3018 RMK AO2 SLP217 T02110211
cycle: 10

Station Type Date Time Source
KGAD TAF UTC NOAA

Error!

Example: see airport list